Latest Coastal Weather Observations for Rundle Island

IDQ60701

Issued at 8:12 pm EST Tuesday 31 May 2016 (issued every 10 minutes, with the page automatically refreshed every 10 minutes)

About coastal observations | Map of coastal stations | Coastal observations for QLD | Marine services | Other Formats
Station Details ID: 039322 Name: RUNDLE ISLAND Lat: -23.53 Lon: 151.28 Height: 19.8 m
Data from the previous 72 hours. | See also: Recent months at Rundle Island
Date/Time
EST
Temp

°C
Wind Pressure Rain
since 9am
mm
Weather Cloud Vis
km
Sea
Height
m
Swell
Dir
 
Speed
knots
Gust
knots
hPa Trend Height
m
Period
s
Dir
31/08:00pm 22.7 ESE 19 21 1022.3 - - - - - - - - -
31/07:30pm 22.7 ESE 14 17 1022.7 - - - - - - - - -
31/07:00pm 22.7 ESE 15 18 1022.5 - - - - - - - - -
31/06:30pm 22.7 ESE 16 19 1022.1 - - - - - - - - -
31/06:00pm 22.6 ESE 17 19 1021.7 - - - - - - - - -
31/05:30pm 22.7 ESE 16 18 1021.7 - - - - - - - - -
31/05:00pm 22.8 ESE 16 19 1021.4 - - - - - - - - -
31/04:30pm 22.8 ESE 15 17 1021.4 - - - - - - - - -
31/04:00pm 22.7 ESE 15 17 1021.1 - - - - - - - - -
31/03:30pm 22.9 SE 14 17 1021.2 - - - - - - - - -
31/03:00pm 22.9 SE 14 17 1021.3 - - - - - - - - -
31/02:30pm 23.1 ESE 13 15 1021.5 - - - - - - - - -
31/02:00pm 23.2 ESE 13 15 1021.5 - - - - - - - - -
31/01:30pm 23.3 ESE 13 15 1021.5 - - - - - - - - -
31/01:00pm 22.7 SE 14 15 1021.8 - - - - - - - - -
31/12:30pm 22.7 SE 14 16 1022.2 - - - - - - - - -
31/12:00pm 22.6 SSE 13 15 1022.8 - - - - - - - - -
31/11:30am 22.1 SSE 14 16 1023.1 - - - - - - - - -
31/11:00am 21.7 SSE 14 17 1023.6 - - - - - - - - -
31/10:30am 21.5 SSE 14 16 1023.8 - - - - - - - - -
31/10:00am 21.3 S 14 16 1024.2 - - - - - - - - -
31/09:30am 20.8 SSE 15 18 1024.1 - - - - - - - - -
31/09:00am 20.7 SSE 16 18 1024.0 - - - - - - - - -
31/08:30am 20.2 SSE 15 17 1023.6 - - - - - - - - -
31/08:00am 20.8 SSE 13 15 1023.6 - - - - - - - - -
31/07:30am 21.1 SSE 13 16 1023.2 - - - - - - - - -
31/07:00am 20.8 SSE 12 14 1023.1 - - - - - - - - -
31/06:30am 21.5 ESE 14 19 1022.6 - - - - - - - - -
31/06:00am 22.1 ESE 15 18 1022.3 - - - - - - - - -
31/05:30am 22.1 ESE 16 19 1022.0 - - - - - - - - -
31/05:00am 22.2 ESE 15 17 1021.7 - - - - - - - - -
31/04:30am 22.4 ESE 15 19 1021.4 - - - - - - - - -
31/04:00am 22.3 ESE 14 17 1021.2 - - - - - - - - -
31/03:30am 22.0 SE 13 17 1021.4 - - - - - - - - -
31/03:00am 21.1 SSE 13 16 1021.5 - - - - - - - - -
31/02:30am 20.9 SSE 12 14 1021.4 - - - - - - - - -
31/02:00am 21.1 SSE 13 15 1021.4 - - - - - - - - -
31/01:30am 21.1 SSE 13 15 1021.7 - - - - - - - - -
31/01:00am 21.3 SSE 14 16 1021.9 - - - - - - - - -
31/12:30am 22.3 SE 14 17 1022.2 - - - - - - - - -
31/12:00am 22.3 ESE 13 16 1022.0 - - - - - - - - -
 
Date/Time
EST
Temp

°C
Wind Pressure Rain
since 9am
mm
Weather Cloud Vis
km
Sea
Height
m
Swell
Dir
 
Speed
knots
Gust
knots
hPa Trend Height
m
Period
s
Dir
30/11:30pm 22.3 ESE 13 16 1022.0 - - - - - - - - -
30/11:00pm 22.2 SE 13 15 1021.9 - - - - - - - - -
30/10:30pm 22.1 ESE 12 14 1022.3 - - - - - - - - -
30/10:00pm 22.3 ESE 11 14 1022.3 - - - - - - - - -
30/09:30pm 22.1 ESE 12 14 1022.1 - - - - - - - - -
30/09:00pm 22.0 ESE 11 14 1022.2 - - - - - - - - -
30/08:30pm 21.9 E 10 14 1022.3 - - - - - - - - -
30/08:00pm 21.9 E 11 13 1022.0 - - - - - - - - -
30/07:30pm 21.9 E 12 14 1021.8 - - - - - - - - -
30/07:00pm 21.7 E 11 13 1021.6 - - - - - - - - -
30/06:30pm 21.8 E 11 14 1021.1 - - - - - - - - -
30/06:00pm 21.6 E 10 13 1020.9 - - - - - - - - -
30/05:30pm 21.6 E 9 12 1020.6 - - - - - - - - -
30/05:00pm 21.7 E 9 11 1020.3 - - - - - - - - -
30/04:30pm 21.9 E 9 10 1020.2 - - - - - - - - -
30/04:00pm 21.8 E 9 12 1019.9 - - - - - - - - -
30/03:30pm 21.8 E 8 9 1019.9 - - - - - - - - -
30/03:00pm 21.8 E 8 10 1019.8 - - - - - - - - -
30/02:30pm 21.7 E 8 10 1019.8 - - - - - - - - -
30/02:00pm 21.4 E 9 10 1020.0 - - - - - - - - -
30/01:30pm 21.4 ESE 10 13 1020.2 - - - - - - - - -
30/01:00pm 21.3 ESE 8 10 1020.6 - - - - - - - - -
30/12:30pm 21.2 SE 8 11 1021.1 - - - - - - - - -
30/12:00pm 21.1 SE 8 10 1021.6 - - - - - - - - -
30/11:30am 21.0 SSE 9 12 1021.9 - - - - - - - - -
30/11:00am 20.8 SSE 10 13 1022.3 - - - - - - - - -
30/10:30am 20.6 SSE 12 14 1022.4 - - - - - - - - -
30/10:00am 20.4 SE 12 14 1022.4 - - - - - - - - -
30/09:30am 20.6 SSE 12 14 1022.5 - - - - - - - - -
30/09:00am 20.0 SSE 12 14 1022.4 - - - - - - - - -
30/08:30am 20.0 SSE 12 14 1022.2 - - - - - - - - -
30/08:00am 19.8 S 13 15 1021.9 - - - - - - - - -
30/07:30am 19.9 S 11 14 1021.5 - - - - - - - - -
30/07:00am 19.5 S 11 13 1021.1 - - - - - - - - -
30/06:30am 19.4 S 12 13 1020.7 - - - - - - - - -
30/06:00am 19.6 S 11 13 1020.4 - - - - - - - - -
30/05:30am 19.4 S 10 11 1020.3 - - - - - - - - -
30/05:00am 19.4 S 10 11 1020.0 - - - - - - - - -
30/04:30am 19.4 S 9 11 1019.6 - - - - - - - - -
30/04:00am 19.6 S 9 11 1019.5 - - - - - - - - -
30/03:30am 19.8 S 10 13 1019.4 - - - - - - - - -
30/03:00am 20.4 S 10 12 1019.4 - - - - - - - - -
30/02:30am 20.2 S 10 12 1019.4 - - - - - - - - -
30/02:00am 20.2 S 10 12 1019.5 - - - - - - - - -
30/01:30am 20.1 S 10 12 1019.4 - - - - - - - - -
30/01:00am 20.4 S 7 9 1019.5 - - - - - - - - -
30/12:30am 20.3 S 7 8 1019.6 - - - - - - - - -
30/12:00am 20.6 SSW 5 7 1019.8 - - - - - - - - -
 
Date/Time
EST
Temp

°C
Wind Pressure Rain
since 9am
mm
Weather Cloud Vis
km
Sea
Height
m
Swell
Dir
 
Speed
knots
Gust
knots
hPa Trend Height
m
Period
s
Dir
29/11:30pm 20.7 S 4 5 1020.0 - - - - - - - - -
29/11:00pm 21.4 E 1 2 1020.0 - - - - - - - - -
29/10:30pm 21.0 CALM 0 0 1020.1 - - - - - - - - -
29/10:00pm 21.6 CALM 0 0 1020.3 - - - - - - - - -
29/09:30pm 21.5 CALM 0 2 1020.2 - - - - - - - - -
29/09:00pm 21.5 NNE 2 3 1020.0 - - - - - - - - -
29/08:30pm 21.6 N 3 4 1019.7 - - - - - - - - -
29/08:00pm 21.5 N 4 6 1019.4 - - - - - - - - -
29/07:30pm 21.3 NNE 4 5 1019.2 - - - - - - - - -
29/07:00pm 21.3 NNE 4 6 1018.9 - - - - - - - - -
29/06:30pm 21.0 NE 5 8 1018.5 - - - - - - - - -
29/06:00pm 21.1 NE 6 7 1018.2 - - - - - - - - -
29/05:30pm 21.1 NE 7 9 1018.0 - - - - - - - - -
29/05:00pm 21.0 NNE 7 9 1017.6 - - - - - - - - -
29/04:30pm 21.1 NE 8 9 1017.3 - - - - - - - - -
29/04:00pm 21.3 NE 8 10 1017.1 - - - - - - - - -
29/03:30pm 21.2 NE 6 8 1016.8 - - - - - - - - -
29/03:00pm 21.6 NE 5 6 1016.9 - - - - - - - - -
29/02:30pm 22.5 NE 4 6 1017.1 - - - - - - - - -
29/02:00pm 21.7 ENE 3 5 1017.0 - - - - - - - - -
29/01:30pm 22.1 ENE 4 5 1017.2 - - - - - - - - -
29/01:00pm 21.5 E 5 6 1017.2 - - - - - - - - -
29/12:30pm 21.5 ESE 5 7 1017.7 - - - - - - - - -
29/12:00pm 20.9 ESE 7 8 1018.1 - - - - - - - - -
29/11:30am 19.8 SE 7 9 1018.6 - - - - - - - - -
29/11:00am 19.8 SE 6 9 1019.0 - - - - - - - - -
29/10:30am 19.8 SE 8 9 1019.3 - - - - - - - - -
29/10:00am 19.8 SSE 9 12 1019.6 - - - - - - - - -
29/09:30am 19.8 SSE 10 13 1019.5 - - - - - - - - -
29/09:00am 19.9 S 10 12 1019.4 - - - - - - - - -
29/08:30am 19.7 S 11 14 1018.9 - - - - - - - - -
29/08:00am 19.6 SSE 12 16 1018.5 - - - - - - - - -
29/07:30am 19.4 S 12 14 1018.0 - - - - - - - - -
29/07:00am 19.1 S 11 14 1017.9 - - - - - - - - -
29/06:30am 19.2 S 12 15 1017.6 - - - - - - - - -
29/06:00am 19.2 S 13 16 1017.3 - - - - - - - - -
29/05:30am 19.9 S 13 17 1017.0 - - - - - - - - -
29/05:00am 20.4 S 14 16 1016.5 - - - - - - - - -
29/04:30am 20.5 S 13 15 1016.1 - - - - - - - - -
29/04:00am 20.4 S 12 14 1016.2 - - - - - - - - -
29/03:30am 21.1 S 14 16 1016.2 - - - - - - - - -
29/03:00am 20.7 S 12 14 1015.9 - - - - - - - - -
29/02:30am 20.6 S 11 13 1015.9 - - - - - - - - -
29/02:00am 21.0 SSW 14 16 1015.9 - - - - - - - - -
29/01:30am 21.2 SSW 11 15 1015.8 - - - - - - - - -
29/01:00am 21.6 SW 7 8 1015.9 - - - - - - - - -
29/12:30am 22.6 WSW 3 3 1015.7 - - - - - - - - -
29/12:00am 22.4 WSW 3 4 1015.7 - - - - - - - - -
 
Date/Time
EST
Temp

°C
Wind Pressure Rain
since 9am
mm
Weather Cloud Vis
km
Sea
Height
m
Swell
Dir
 
Speed
knots
Gust
knots
hPa Trend Height
m
Period
s
Dir
28/11:30pm 22.4 WSW 2 3 1015.9 - - - - - - - - -
28/11:00pm 22.7 CALM 0 0 1016.0 - - - - - - - - -
28/10:30pm 22.9 CALM 0 0 1016.1 - - - - - - - - -
28/10:00pm 23.0 CALM 0 0 1016.0 - - - - - - - - -
28/09:30pm 23.1 CALM 0 0 1015.9 - - - - - - - - -
28/09:00pm 23.1 N 1 1 1015.8 - - - - - - - - -
28/08:30pm 23.0 NNW 2 3 1015.7 - - - - - - - - -

Other Formats:

Comma delimited format used in spreadsheet applications
http://www.bom.gov.au/fwo/IDQ60701/IDQ60701.94378.axf

JavaScript Object Notation format (JSON) in row-major order
http://www.bom.gov.au/fwo/IDQ60701/IDQ60701.94378.json